Careywood, ID (83809)

2:25 PM PST on December 26, 2014 (GMT -0800)
Cocolalla, ID KG7CSG | Change Station
CLOSE
Current Station
Personal Weather Station
Location: Cocolalla, ID
Elevation: 2400 ft
Nearby Weather Stations
Active Advisory: Winter Storm Watch

Elev 2400 ft 48.10 °N, 116.61 °W | Updated 10 minutes ago

Overcast
Overcast
40.8 °F
Feels Like 41 °F
N
1.0
Wind Variable Wind from WSW
Gusts 8.0 mph

Today
High -- | Low -- °F
--% Chance of Precip.
Yesterday
High -- | Low -- °F
Precip. -- in
7:35 AM 3:58 PM
Waxing Crescent, 29% visible
Pressure 30.24 in
Visibility 10.0 miles
Clouds Overcast 2900 ft
Windchill 41 °F
Dew Point 32 °F
Humidity 71%
Rainfall 0.02 in
Snow Depth Not available.
UV 0 out of 12
Pollen .10 out of 12
Air Quality Not available.
Flu Activity Not available.
METAR KSZT 262215Z AUTO 00000KT 10SM OVC029 00/M05 A3024 RMK AO2

More Conditions Fewer Conditions

Pressure 30.24 in
Visibility 10.0 miles
Clouds Overcast 2900 ft
Windchill 41 °F
Dew Point 32 °F
Humidity 71%
Rainfall 0.02 in
Snow Depth Not available.
UV 0 out of 12
Pollen .10 out of 12
Air Quality Not available.
Flu Activity Not available.
METAR KSZT 262215Z AUTO 00000KT 10SM OVC029 00/M05 A3024 RMK AO2

More Conditions Fewer Conditions

10-Day Weather Forecast

Almanac

Astronomy

Dec. 26, 2014 Rise Set
Actual Time
Civil Twilight
Nautical Twilight
Astronomical Twilight
Moon
Length of Visible Light
Length of Day
Tomorrow will be .
, % of the Moon is Illuminated

Today's Extremes

State Highs State Lows

Community

WunderPhotos

Upload Photos

1,780,737 photos uploaded!

WunderBlogs® & News

Nearby

Air Quality

  Air Quality AQ Index Pollutant
Not available.

Snow Depth

Station Depth Elevation

Earthquake Activity

City Distance Mag. Time & Date
Minimum magnitude displayed is 2.5.

Coastal Water Temperatures

Place Temperature

Nearby Weather Stations